首页
METAR-TAF:

METAR-TAF

机场 :

羅曼·莫圖國際機場

科羅爾, 巴伯尔道布岛, 帛琉

纬度: 07-22N, 经度: 134-32E, 海拔: 54米

当前天气观测

该预报发布于41分钟前的14:50 UTC
风速10节,风向西,有时为15节阵风
温度 27°C
湿度 79%
气压 1006 hPa
能見度: 22.5公里
多云层高于1600英尺, 积雨云.
阴天层高于29000英尺

METAR: PTRO 161450Z 27010G15KT 14SM BKN016CB OVC290 27/23 A2972 RMK CB ALQDS

时间: 00:31 (15:31 UTC)

预报

该预报发布于4小时和3分钟前的11:28 UTC
预报有效从16日的 12点(UTC)到 17日的 12点(UTC)
风速16节,风向西,有时为24节阵风
能見度: 10公里
散云层高于1600英尺
多云层高于12000英尺
附近有阵雨

TAF: PTRO 161128Z 1612/1712 28016G24KT P6SM VCSH SCT016 BKN120

超过4000个机场的气象观测和天气预报(METAR&TAF报告)。

可查询的气象台以黄色和红色小点在地图上表示。

将鼠标移到小点上方,可查看气象台名称。

然后点击查看天气观测和预报。

如需切换地图:点击带黑十字的绿色按钮放大地图;点击带横线的绿色按钮缩小地图;或者点击绿色箭头查看邻近地区的地图。


METAR-TAF: